createdAt,value
2018-10-18T00:00:36.124Z,17.23
2018-10-18T00:03:03.884Z,16.23
2018-10-18T00:05:31.849Z,14.47
2018-10-18T00:07:59.714Z,16.67
2018-10-18T00:10:27.422Z,15.83
2018-10-18T00:12:55.189Z,11.83
2018-10-18T00:15:22.907Z,12.90
2018-10-18T00:17:50.610Z,14.53
2018-10-18T00:20:18.351Z,13.37
2018-10-18T00:22:46.381Z,15.30
2018-10-18T00:25:14.658Z,10.40
2018-10-18T00:27:42.369Z,13.27
2018-10-18T00:30:11.834Z,13.40
2018-10-18T00:32:39.814Z,14.67
2018-10-18T00:35:07.798Z,14.50
2018-10-18T00:37:35.538Z,13.63
2018-10-18T00:40:03.341Z,16.93
2018-10-18T00:42:31.091Z,15.40
2018-10-18T00:44:58.798Z,14.90
2018-10-18T00:47:26.497Z,16.00
2018-10-18T00:49:54.270Z,13.23
2018-10-18T00:52:21.968Z,17.53
2018-10-18T00:54:49.662Z,14.13
2018-10-18T00:57:17.410Z,14.10
2018-10-18T00:59:45.162Z,17.67
2018-10-18T01:02:12.983Z,13.93
2018-10-18T01:04:40.639Z,14.93
2018-10-18T01:07:08.378Z,13.80
2018-10-18T01:09:36.116Z,16.40
2018-10-18T01:12:04.150Z,14.97
2018-10-18T01:14:31.851Z,14.77
2018-10-18T01:17:01.629Z,13.83
2018-10-18T01:19:29.858Z,18.00
2018-10-18T01:21:57.644Z,13.33
2018-10-18T01:24:25.589Z,14.97
2018-10-18T01:26:53.395Z,13.57
2018-10-18T01:29:21.114Z,19.47
2018-10-18T01:31:48.915Z,18.73
2018-10-18T01:34:16.645Z,13.00
2018-10-18T01:36:44.398Z,13.73
2018-10-18T01:39:12.170Z,13.93
2018-10-18T01:41:40.438Z,14.63
2018-10-18T01:44:08.267Z,17.20
2018-10-18T01:46:36.026Z,14.10
2018-10-18T01:49:03.894Z,15.67
2018-10-18T01:51:31.646Z,15.67
2018-10-18T01:53:59.462Z,15.80
2018-10-18T01:56:27.176Z,14.87
2018-10-18T01:58:54.901Z,14.67
2018-10-18T02:01:22.643Z,16.63
2018-10-18T02:03:50.409Z,17.83
2018-10-18T02:06:18.250Z,11.97
2018-10-18T02:08:45.961Z,14.70
2018-10-18T02:11:13.683Z,15.20
2018-10-18T02:13:41.458Z,18.10
2018-10-18T02:16:09.290Z,16.27
2018-10-18T02:18:37.033Z,15.90
2018-10-18T02:21:05.332Z,18.07
2018-10-18T02:23:33.063Z,13.47
2018-10-18T02:26:00.815Z,15.33
2018-10-18T02:28:28.625Z,13.13
2018-10-18T02:30:56.337Z,16.33
2018-10-18T02:33:24.068Z,16.10
2018-10-18T02:35:51.857Z,15.80
2018-10-18T02:38:19.825Z,15.60
2018-10-18T02:40:47.535Z,19.33
2018-10-18T02:43:15.253Z,16.93
2018-10-18T02:45:42.991Z,20.60
2018-10-18T02:48:10.736Z,16.67
2018-10-18T02:50:38.525Z,17.73
2018-10-18T02:53:06.277Z,18.43
2018-10-18T02:55:34.004Z,19.03
2018-10-18T02:58:01.841Z,17.20
2018-10-18T03:00:29.617Z,20.53
2018-10-18T03:02:57.319Z,14.37
2018-10-18T03:05:25.028Z,20.63
2018-10-18T03:07:52.739Z,17.23
2018-10-18T03:10:20.504Z,19.97
2018-10-18T03:12:48.254Z,18.57
2018-10-18T03:15:15.987Z,27.83
2018-10-18T03:17:43.687Z,25.50
2018-10-18T03:20:11.436Z,22.00
2018-10-18T03:22:39.222Z,18.37
2018-10-18T03:25:08.040Z,23.00
2018-10-18T03:27:35.775Z,18.17
2018-10-18T03:30:03.759Z,18.53
2018-10-18T03:32:31.518Z,20.23
2018-10-18T03:34:59.277Z,24.53
2018-10-18T03:37:26.986Z,18.00
2018-10-18T03:39:54.675Z,17.80
2018-10-18T03:42:22.397Z,21.37
2018-10-18T03:44:50.134Z,19.90
2018-10-18T03:47:17.907Z,19.17
2018-10-18T03:49:45.632Z,19.77
2018-10-18T03:52:13.389Z,22.27
2018-10-18T03:54:41.161Z,21.37
2018-10-18T03:57:08.878Z,20.87
2018-10-18T03:59:36.630Z,19.00
2018-10-18T04:02:04.646Z,18.37
2018-10-18T04:04:32.450Z,21.23
2018-10-18T04:07:00.169Z,20.00
2018-10-18T04:09:27.893Z,17.07
2018-10-18T04:11:55.636Z,21.27
2018-10-18T04:14:23.347Z,20.13
2018-10-18T04:16:51.116Z,20.77
2018-10-18T04:19:18.839Z,19.97
2018-10-18T04:21:46.544Z,19.03
2018-10-18T04:24:14.444Z,23.60
2018-10-18T04:26:42.129Z,25.13
2018-10-18T04:29:09.842Z,23.07
2018-10-18T04:31:37.561Z,24.73
2018-10-18T04:34:05.302Z,31.97
2018-10-18T04:36:33.070Z,32.27
2018-10-18T04:39:00.826Z,23.87
2018-10-18T04:41:28.893Z,24.10
2018-10-18T04:43:56.673Z,29.47
2018-10-18T04:46:24.438Z,24.70
2018-10-18T04:48:52.160Z,22.30
2018-10-18T04:51:19.925Z,30.77
2018-10-18T04:53:47.695Z,28.20
2018-10-18T04:56:15.597Z,26.47
2018-10-18T04:58:43.341Z,29.40
2018-10-18T05:01:11.162Z,30.10
2018-10-18T05:03:38.908Z,31.63
2018-10-18T05:06:06.726Z,29.93
2018-10-18T05:08:34.440Z,33.03
2018-10-18T05:11:02.163Z,39.17
2018-10-18T05:13:29.874Z,39.67
2018-10-18T05:15:57.591Z,43.03
2018-10-18T05:18:25.363Z,41.33
2018-10-18T05:20:53.200Z,39.97
2018-10-18T05:23:21.002Z,41.13
2018-10-18T05:25:49.578Z,46.80
2018-10-18T05:28:19.624Z,44.80
2018-10-18T05:30:47.659Z,94.47
2018-10-18T05:33:16.290Z,55.40
2018-10-18T05:35:44.285Z,30.80
2018-10-18T05:38:12.106Z,28.13
2018-10-18T05:40:40.197Z,27.37
2018-10-18T05:43:08.092Z,27.37
2018-10-18T05:45:35.805Z,23.30
2018-10-18T05:48:03.627Z,34.37
2018-10-18T05:50:31.994Z,35.80
2018-10-18T05:52:59.793Z,35.50
2018-10-18T05:55:27.588Z,30.30
2018-10-18T05:57:56.480Z,28.40
2018-10-18T06:00:24.381Z,30.07
2018-10-18T06:02:52.095Z,34.47
2018-10-18T06:05:19.862Z,30.83
2018-10-18T06:07:47.653Z,30.37
2018-10-18T06:10:27.113Z,26.27
2018-10-18T06:12:54.825Z,31.43
2018-10-18T06:15:22.941Z,23.80
2018-10-18T06:17:50.694Z,23.13
2018-10-18T06:20:19.198Z,26.30
2018-10-18T06:22:46.958Z,26.33
2018-10-18T06:25:14.730Z,24.80
2018-10-18T06:27:42.471Z,26.93
2018-10-18T06:30:14.756Z,23.90
2018-10-18T06:32:42.648Z,31.00
2018-10-18T06:35:11.707Z,30.73
2018-10-18T06:37:39.425Z,29.60
2018-10-18T06:40:09.906Z,30.83
2018-10-18T06:42:38.174Z,29.67
2018-10-18T06:45:07.228Z,28.13
2018-10-18T06:47:35.186Z,33.50
2018-10-18T06:50:02.991Z,24.37
2018-10-18T06:52:30.775Z,24.43
2018-10-18T06:54:58.513Z,26.33
2018-10-18T06:57:26.282Z,24.40
2018-10-18T06:59:54.128Z,31.33
2018-10-18T07:02:21.888Z,27.40
2018-10-18T07:04:49.685Z,34.50
2018-10-18T07:07:17.416Z,32.73
2018-10-18T07:09:45.122Z,36.00
2018-10-18T07:12:13.747Z,39.97
2018-10-18T07:14:41.486Z,33.10
2018-10-18T07:17:09.218Z,28.20
2018-10-18T07:19:36.954Z,31.87
2018-10-18T07:22:04.743Z,34.53
2018-10-18T07:24:32.534Z,28.23
2018-10-18T07:27:00.406Z,29.47
2018-10-18T07:29:28.126Z,27.90
2018-10-18T07:31:55.856Z,29.60
2018-10-18T07:34:23.753Z,28.77
2018-10-18T07:36:51.499Z,32.03
2018-10-18T07:39:19.230Z,33.43
2018-10-18T07:41:46.973Z,38.53
2018-10-18T07:44:14.699Z,34.87
2018-10-18T07:46:42.444Z,30.93
2018-10-18T07:49:10.576Z,30.90
2018-10-18T07:51:38.305Z,31.00
2018-10-18T07:54:06.118Z,35.97
2018-10-18T07:56:33.838Z,27.30
2018-10-18T07:59:01.603Z,27.97
2018-10-18T08:01:29.802Z,29.90
2018-10-18T08:03:57.612Z,27.43
2018-10-18T08:06:25.423Z,28.00
2018-10-18T08:08:53.162Z,32.83
2018-10-18T08:11:20.952Z,28.57
2018-10-18T08:13:48.690Z,34.33
2018-10-18T08:16:16.446Z,26.23
2018-10-18T08:18:44.199Z,29.50
2018-10-18T08:21:11.931Z,24.27
2018-10-18T08:23:39.651Z,26.63
2018-10-18T08:26:07.580Z,25.13
2018-10-18T08:28:35.374Z,29.80
2018-10-18T08:31:03.175Z,27.57
2018-10-18T08:33:30.942Z,30.83
2018-10-18T08:35:58.707Z,30.53
2018-10-18T08:38:26.447Z,32.57
2018-10-18T08:40:54.234Z,29.77
2018-10-18T08:43:21.962Z,30.80
2018-10-18T08:45:50.026Z,34.30
2018-10-18T08:48:17.829Z,28.00
2018-10-18T08:50:45.584Z,56.87
2018-10-18T08:53:13.326Z,54.47
2018-10-18T08:55:41.180Z,38.43
2018-10-18T08:58:09.163Z,32.30
2018-10-18T09:00:36.919Z,37.60
2018-10-18T09:03:04.926Z,36.33
2018-10-18T09:05:32.715Z,29.37
2018-10-18T09:08:00.594Z,28.07
2018-10-18T09:10:28.370Z,32.40
2018-10-18T09:12:56.169Z,35.50
2018-10-18T09:15:23.941Z,31.37
2018-10-18T09:17:51.670Z,33.53
2018-10-18T09:20:19.399Z,29.83
2018-10-18T09:22:47.132Z,32.00
2018-10-18T09:25:14.922Z,32.43
2018-10-18T09:27:42.641Z,26.57
2018-10-18T09:30:12.144Z,25.57
2018-10-18T09:32:39.909Z,27.07
2018-10-18T09:35:07.674Z,27.50
2018-10-18T09:37:35.440Z,27.87
2018-10-18T09:40:03.247Z,28.47
2018-10-18T09:42:30.993Z,26.43
2018-10-18T09:44:58.837Z,25.90
2018-10-18T09:47:26.529Z,24.70
2018-10-18T09:49:54.262Z,25.70
2018-10-18T09:52:22.022Z,24.63
2018-10-18T09:54:49.958Z,22.30
2018-10-18T09:57:17.702Z,29.20
2018-10-18T09:59:45.446Z,24.80
2018-10-18T10:02:18.731Z,25.70
2018-10-18T10:04:46.505Z,22.67
2018-10-18T10:07:14.326Z,30.57
2018-10-18T10:09:42.042Z,23.87
2018-10-18T10:12:09.769Z,26.30
2018-10-18T10:14:37.535Z,24.20
2018-10-18T10:17:05.999Z,21.17
2018-10-18T10:19:33.732Z,23.73
2018-10-18T10:22:01.494Z,29.13
2018-10-18T10:24:29.245Z,29.60
2018-10-18T10:26:56.971Z,28.03
2018-10-18T10:29:24.722Z,23.83
2018-10-18T10:31:52.463Z,23.93
2018-10-18T10:34:20.205Z,26.60
2018-10-18T10:36:47.943Z,27.67
2018-10-18T10:39:15.772Z,24.90
2018-10-18T10:41:43.490Z,25.43
2018-10-18T10:44:11.291Z,24.93
2018-10-18T10:46:40.282Z,26.40
2018-10-18T10:49:08.709Z,24.90
2018-10-18T10:51:36.794Z,25.80
2018-10-18T10:54:05.328Z,28.33
2018-10-18T10:56:33.079Z,27.70
2018-10-18T10:59:05.195Z,25.97
2018-10-18T11:01:32.939Z,23.50
2018-10-18T11:04:00.687Z,25.23
2018-10-18T11:06:29.322Z,27.50
2018-10-18T11:08:57.149Z,26.20
2018-10-18T11:11:24.866Z,25.63
2018-10-18T11:13:52.663Z,27.47
2018-10-18T11:16:20.422Z,28.07
2018-10-18T11:18:48.151Z,26.97
2018-10-18T11:21:17.086Z,22.90
2018-10-18T11:23:44.816Z,23.87
2018-10-18T11:26:12.697Z,24.93
2018-10-18T11:28:40.406Z,24.53
2018-10-18T11:31:08.175Z,22.47
2018-10-18T11:33:35.993Z,21.17
2018-10-18T11:36:03.831Z,22.57
2018-10-18T11:38:31.649Z,20.33
2018-10-18T11:40:59.510Z,20.10
2018-10-18T11:43:27.277Z,19.03
2018-10-18T11:45:55.035Z,20.13
2018-10-18T11:48:22.783Z,21.37
2018-10-18T11:50:50.563Z,22.13
2018-10-18T11:53:18.360Z,18.87
2018-10-18T11:55:46.137Z,18.13
2018-10-18T11:58:14.206Z,21.50
2018-10-18T12:00:42.201Z,17.30
2018-10-18T12:03:09.975Z,20.83
2018-10-18T12:05:37.744Z,22.43
2018-10-18T12:08:05.576Z,19.90
2018-10-18T12:10:33.385Z,18.20
2018-10-18T12:13:01.144Z,23.20
2018-10-18T12:15:28.885Z,25.17
2018-10-18T12:17:56.700Z,26.27
2018-10-18T12:20:24.450Z,22.93
2018-10-18T12:22:52.289Z,25.30
2018-10-18T12:25:20.034Z,23.00
2018-10-18T12:27:47.801Z,20.60
2018-10-18T12:30:15.760Z,23.20
2018-10-18T12:32:43.534Z,28.20
2018-10-18T12:35:11.366Z,26.47
2018-10-18T12:37:39.094Z,30.30
2018-10-18T12:40:07.935Z,29.57
2018-10-18T12:42:37.190Z,26.63
2018-10-18T12:45:06.126Z,29.23
2018-10-18T12:47:33.873Z,31.03
2018-10-18T12:50:01.662Z,34.73
2018-10-18T12:52:29.584Z,35.50
2018-10-18T12:54:57.394Z,31.07
2018-10-18T12:57:25.142Z,32.07
2018-10-18T12:59:52.945Z,26.57
2018-10-18T13:02:20.755Z,25.13
2018-10-18T13:04:48.496Z,36.50
2018-10-18T13:07:16.263Z,28.27
2018-10-18T13:09:43.987Z,32.50
2018-10-18T13:12:11.788Z,40.47
2018-10-18T13:14:39.506Z,37.20
2018-10-18T13:17:07.266Z,28.03
2018-10-18T13:19:35.017Z,24.40
2018-10-18T13:22:02.766Z,26.17
2018-10-18T13:24:31.526Z,23.63
2018-10-18T13:26:59.264Z,26.30
2018-10-18T13:29:27.030Z,24.63
2018-10-18T13:31:54.855Z,31.37
2018-10-18T13:34:22.571Z,25.53
2018-10-18T13:36:50.352Z,27.30
2018-10-18T13:39:18.174Z,28.97
2018-10-18T13:41:45.961Z,23.10
2018-10-18T13:44:13.794Z,27.73
2018-10-18T13:46:41.528Z,28.57
2018-10-18T13:49:09.271Z,27.27
2018-10-18T13:51:37.012Z,28.77
2018-10-18T13:54:05.120Z,22.97
2018-10-18T13:56:32.750Z,30.53
2018-10-18T13:59:00.537Z,24.70
2018-10-18T14:01:28.390Z,21.93
2018-10-18T14:03:56.255Z,25.73
2018-10-18T14:06:24.005Z,22.47
2018-10-18T14:08:51.742Z,27.47
2018-10-18T14:11:19.583Z,24.87
2018-10-18T14:13:47.217Z,21.67
2018-10-18T14:16:15.282Z,26.67
2018-10-18T14:18:43.083Z,25.13
2018-10-18T14:21:10.860Z,25.73
2018-10-18T14:23:38.594Z,25.67
2018-10-18T14:26:06.604Z,28.80
2018-10-18T14:28:34.296Z,23.87
2018-10-18T14:31:02.031Z,30.43
2018-10-18T14:33:30.715Z,23.83
2018-10-18T14:35:58.454Z,25.07
2018-10-18T14:38:26.253Z,28.83
2018-10-18T14:40:53.990Z,25.97
2018-10-18T14:43:21.748Z,25.40
2018-10-18T14:45:49.514Z,27.17
2018-10-18T14:48:17.285Z,25.73
2018-10-18T14:50:45.254Z,24.37
2018-10-18T14:53:12.970Z,25.93
2018-10-18T14:55:40.694Z,25.47
2018-10-18T14:58:08.437Z,19.07
2018-10-18T15:00:36.169Z,25.53
2018-10-18T15:03:04.207Z,28.20
2018-10-18T15:05:31.964Z,25.60
2018-10-18T15:07:59.693Z,29.60
2018-10-18T15:10:27.426Z,23.40
2018-10-18T15:12:55.159Z,26.63
2018-10-18T15:15:22.975Z,22.20
2018-10-18T15:17:50.710Z,28.47
2018-10-18T15:20:18.424Z,26.07
2018-10-18T15:22:46.154Z,24.20
2018-10-18T15:25:13.973Z,28.20
2018-10-18T15:27:42.166Z,25.63
2018-10-18T15:30:10.628Z,30.83
2018-10-18T15:32:38.689Z,31.20
2018-10-18T15:35:07.841Z,33.73
2018-10-18T15:37:35.634Z,38.00
2018-10-18T15:40:03.891Z,30.57
2018-10-18T15:42:31.617Z,30.70
2018-10-18T15:44:59.677Z,34.17
2018-10-18T15:47:27.462Z,37.27
2018-10-18T15:49:55.211Z,36.20
2018-10-18T15:52:22.987Z,35.27
2018-10-18T15:54:50.727Z,41.17
2018-10-18T15:57:18.692Z,33.27
2018-10-18T15:59:46.469Z,38.57
2018-10-18T16:02:14.227Z,37.90
2018-10-18T16:04:41.975Z,38.87
2018-10-18T16:07:09.722Z,33.50
2018-10-18T16:09:37.456Z,30.43
2018-10-18T16:12:05.278Z,32.97
2018-10-18T16:14:33.136Z,42.70
2018-10-18T16:17:01.062Z,40.87
2018-10-18T16:19:28.845Z,36.87
2018-10-18T16:21:56.612Z,36.00
2018-10-18T16:24:24.475Z,33.80
2018-10-18T16:26:52.171Z,41.53
2018-10-18T16:29:19.931Z,35.90
2018-10-18T16:31:47.732Z,40.30
2018-10-18T16:34:15.508Z,42.43
2018-10-18T16:36:43.263Z,42.50
2018-10-18T16:39:12.631Z,43.10
2018-10-18T16:41:40.884Z,41.73
2018-10-18T16:44:08.988Z,47.67
2018-10-18T16:46:36.926Z,48.23
2018-10-18T16:49:05.300Z,44.17
2018-10-18T16:51:33.052Z,45.63
2018-10-18T16:54:01.064Z,50.27
2018-10-18T16:56:28.763Z,48.87
2018-10-18T16:58:56.507Z,50.97
2018-10-18T17:01:24.330Z,51.53
2018-10-18T17:03:52.157Z,56.13
2018-10-18T17:06:19.953Z,59.43
2018-10-18T17:08:47.722Z,56.13
2018-10-18T17:11:15.544Z,62.33
2018-10-18T17:13:43.215Z,58.50
2018-10-18T17:16:10.991Z,58.47
2018-10-18T17:18:39.054Z,65.20
2018-10-18T17:21:06.839Z,63.77
2018-10-18T17:23:34.603Z,62.30
2018-10-18T17:26:02.417Z,65.60
2018-10-18T17:28:30.171Z,65.37
2018-10-18T17:30:57.903Z,60.00
2018-10-18T17:33:25.729Z,58.43
2018-10-18T17:35:53.544Z,62.10
2018-10-18T17:38:21.303Z,58.40
2018-10-18T17:40:49.199Z,56.17
2018-10-18T17:43:16.858Z,58.90
2018-10-18T17:45:44.590Z,56.37
2018-10-18T17:48:12.471Z,56.77
2018-10-18T17:50:40.308Z,51.13
2018-10-18T17:53:08.139Z,58.00
2018-10-18T17:55:35.930Z,55.13
2018-10-18T17:58:03.871Z,56.47
2018-10-18T18:00:31.670Z,52.00
2018-10-18T18:02:59.363Z,61.70
2018-10-18T18:05:27.110Z,54.27
2018-10-18T18:07:54.897Z,55.47
2018-10-18T18:10:22.758Z,53.90
2018-10-18T18:12:50.624Z,54.03
2018-10-18T18:15:18.420Z,52.27
2018-10-18T18:17:46.179Z,52.67
2018-10-18T18:20:13.925Z,57.07
2018-10-18T18:22:41.756Z,55.73
2018-10-18T18:25:10.734Z,59.87
2018-10-18T18:27:38.543Z,52.83
2018-10-18T18:30:09.529Z,50.37
2018-10-18T18:32:37.282Z,52.03
2018-10-18T18:35:05.678Z,46.37
2018-10-18T18:37:33.530Z,51.50
2018-10-18T18:40:01.250Z,47.50
2018-10-18T18:42:29.032Z,47.20
2018-10-18T18:45:02.335Z,50.97
2018-10-18T18:47:30.288Z,50.17
2018-10-18T18:49:57.990Z,52.10
2018-10-18T18:52:25.730Z,46.53
2018-10-18T18:54:53.524Z,51.30
2018-10-18T18:57:21.290Z,47.37
2018-10-18T18:59:49.009Z,46.30
2018-10-18T19:02:16.735Z,46.73
2018-10-18T19:04:44.455Z,45.97
2018-10-18T19:07:12.202Z,51.07
2018-10-18T19:09:39.931Z,49.73
2018-10-18T19:12:07.682Z,48.10
2018-10-18T19:14:35.398Z,42.53
2018-10-18T19:17:03.118Z,46.00
2018-10-18T19:19:30.821Z,43.83
2018-10-18T19:21:58.585Z,42.00
2018-10-18T19:24:26.307Z,45.20
2018-10-18T19:26:54.022Z,40.50
2018-10-18T19:29:21.730Z,40.27
2018-10-18T19:31:49.499Z,40.13
2018-10-18T19:34:17.222Z,45.67
2018-10-18T19:36:44.988Z,43.80
2018-10-18T19:39:12.689Z,39.83
2018-10-18T19:41:40.430Z,42.73
2018-10-18T19:44:08.183Z,42.93
2018-10-18T19:46:35.965Z,41.73
2018-10-18T19:49:03.990Z,45.73
2018-10-18T19:51:31.706Z,42.73
2018-10-18T19:53:59.414Z,46.13
2018-10-18T19:56:27.129Z,47.50
2018-10-18T19:58:55.559Z,46.60
2018-10-18T20:01:23.278Z,44.20
2018-10-18T20:03:51.023Z,42.20
2018-10-18T20:06:18.959Z,46.60
2018-10-18T20:08:46.699Z,46.77
2018-10-18T20:11:14.407Z,53.73
2018-10-18T20:13:42.252Z,47.37
2018-10-18T20:16:09.982Z,43.93
2018-10-18T20:18:37.771Z,49.00
2018-10-18T20:21:05.595Z,47.20
2018-10-18T20:23:33.245Z,41.27
2018-10-18T20:26:01.336Z,43.97
2018-10-18T20:28:28.721Z,43.50
2018-10-18T20:30:56.467Z,43.73
2018-10-18T20:33:24.176Z,42.70
2018-10-18T20:35:51.898Z,43.27
2018-10-18T20:38:19.621Z,41.63
2018-10-18T20:40:47.314Z,44.03
2018-10-18T20:43:15.020Z,38.90
2018-10-18T20:45:42.718Z,42.30
2018-10-18T20:48:10.559Z,43.07
2018-10-18T20:50:38.190Z,43.70
2018-10-18T20:53:05.999Z,45.10
2018-10-18T20:55:33.698Z,43.17
2018-10-18T20:58:01.523Z,43.83
2018-10-18T21:00:29.230Z,41.70
2018-10-18T21:02:56.981Z,43.17
2018-10-18T21:05:24.716Z,45.13
2018-10-18T21:07:52.430Z,41.97
2018-10-18T21:10:20.210Z,42.73
2018-10-18T21:12:47.909Z,42.13
2018-10-18T21:15:15.698Z,41.13
2018-10-18T21:17:43.362Z,42.73
2018-10-18T21:20:11.153Z,41.10
2018-10-18T21:22:38.941Z,42.57
2018-10-18T21:25:06.965Z,46.90
2018-10-18T21:27:34.735Z,45.30
2018-10-18T21:30:02.446Z,42.73
2018-10-18T21:32:30.157Z,44.37
2018-10-18T21:34:57.894Z,42.17
2018-10-18T21:37:25.593Z,42.80
2018-10-18T21:39:53.297Z,42.80
2018-10-18T21:42:20.993Z,42.83
2018-10-18T21:44:49.134Z,39.70
2018-10-18T21:47:17.096Z,40.87
2018-10-18T21:49:44.818Z,40.87
2018-10-18T21:52:12.579Z,38.90
2018-10-18T21:54:40.285Z,43.17
2018-10-18T21:57:08.060Z,41.50
2018-10-18T21:59:35.714Z,39.47
2018-10-18T22:02:03.569Z,42.67
2018-10-18T22:04:31.289Z,41.70
2018-10-18T22:06:59.020Z,38.93
2018-10-18T22:09:26.764Z,44.13
2018-10-18T22:11:54.494Z,41.37
2018-10-18T22:14:22.280Z,45.17
2018-10-18T22:16:50.281Z,40.30
2018-10-18T22:19:17.982Z,40.07
2018-10-18T22:21:45.707Z,37.77
2018-10-18T22:24:13.424Z,41.70
2018-10-18T22:26:41.155Z,39.10
2018-10-18T22:29:08.929Z,38.13
2018-10-18T22:31:36.777Z,34.97
2018-10-18T22:34:04.805Z,43.50
2018-10-18T22:36:32.506Z,43.00
2018-10-18T22:39:00.344Z,42.13
2018-10-18T22:41:28.063Z,38.37
2018-10-18T22:43:55.834Z,41.70
2018-10-18T22:46:23.605Z,40.50
2018-10-18T22:48:51.310Z,43.43
2018-10-18T22:51:19.480Z,36.90
2018-10-18T22:53:47.189Z,34.60
2018-10-18T22:56:14.881Z,36.97
2018-10-18T22:58:42.858Z,40.20
2018-10-18T23:01:10.666Z,38.57
2018-10-18T23:03:38.482Z,38.53
2018-10-18T23:06:06.217Z,37.90
2018-10-18T23:08:33.925Z,41.53
2018-10-18T23:11:01.647Z,39.43
2018-10-18T23:13:29.362Z,39.63
2018-10-18T23:15:57.112Z,42.87
2018-10-18T23:18:24.822Z,39.03
2018-10-18T23:20:52.545Z,38.37
2018-10-18T23:23:20.246Z,39.63
2018-10-18T23:25:47.952Z,39.23
2018-10-18T23:28:15.706Z,41.37
2018-10-18T23:30:43.432Z,36.80
2018-10-18T23:33:11.189Z,39.63
2018-10-18T23:35:38.903Z,40.03
2018-10-18T23:38:06.615Z,40.87
2018-10-18T23:40:34.336Z,40.57
2018-10-18T23:43:02.099Z,37.63
2018-10-18T23:45:29.793Z,37.97
2018-10-18T23:47:57.510Z,44.90
2018-10-18T23:50:25.222Z,39.37
2018-10-18T23:52:52.956Z,42.67
2018-10-18T23:55:20.727Z,41.73
2018-10-18T23:57:48.451Z,44.40
